Broadacre, Colorado
Current Conditions -  °F | °C
As of 2:53 AM on Monday 22 Dec 2014 (Local Time) from KPUB Reporting Station
Light Snow Light Snow  
Wind Chill: 29°   Ceiling: 1700
Heat Index: 38°   Visibility: 8mi
Dew Point: 30°   Wind: 16mph
Humidity: 73%   Direction: 10°N
Pressure: 29.73"   Gusts: 28mph
Location:  38.0104°N, 104.392°W
Report Text: KPUB 220953Z AUTO 01014G24KT 8SM -SN OVC017 03/M01 A2973 RMK AO2 PK WND 01036/0924 RAB19E44SNB44 SLP047 P0000 T00331011
Loading
Personal Weather Stations






























Interactive Weather Map New forecast layout! Learn more

10-Day Weather Forecast

Advertisements
Track Severe Weather on mobile